sensor_id;sensor_type;location;lat;lon;timestamp;pressure;altitude;pressure_sealevel;temperature;humidity
17764;BME280;22245;52.832;13.816;2023-05-21T00:00:59;101920.63;;;15.57;75.52
17764;BME280;22245;52.832;13.816;2023-05-21T00:04:20;101920.16;;;15.52;75.51
17764;BME280;22245;52.832;13.816;2023-05-21T00:07:43;101918.72;;;15.47;75.70
17764;BME280;22245;52.832;13.816;2023-05-21T00:11:05;101910.09;;;15.44;76.00
17764;BME280;22245;52.832;13.816;2023-05-21T00:14:27;101914.03;;;15.40;76.43
17764;BME280;22245;52.832;13.816;2023-05-21T00:17:50;101902.00;;;15.34;75.91
17764;BME280;22245;52.832;13.816;2023-05-21T00:21:12;101904.81;;;15.32;76.87
17764;BME280;22245;52.832;13.816;2023-05-21T00:24:36;101898.72;;;15.30;76.82
17764;BME280;22245;52.832;13.816;2023-05-21T00:27:58;101898.16;;;15.27;76.85
17764;BME280;22245;52.832;13.816;2023-05-21T00:31:20;101894.75;;;15.25;77.09
17764;BME280;22245;52.832;13.816;2023-05-21T00:34:43;101900.41;;;15.22;77.94
17764;BME280;22245;52.832;13.816;2023-05-21T00:38:05;101892.34;;;15.22;77.69
17764;BME280;22245;52.832;13.816;2023-05-21T00:41:27;101896.13;;;15.19;78.17
17764;BME280;22245;52.832;13.816;2023-05-21T00:44:49;101893.72;;;15.16;77.89
17764;BME280;22245;52.832;13.816;2023-05-21T00:48:13;101889.44;;;15.13;78.23
17764;BME280;22245;52.832;13.816;2023-05-21T00:51:36;101889.88;;;15.09;78.62
17764;BME280;22245;52.832;13.816;2023-05-21T00:54:57;101890.84;;;15.08;78.89
17764;BME280;22245;52.832;13.816;2023-05-21T00:58:19;101886.47;;;15.07;78.68
17764;BME280;22245;52.832;13.816;2023-05-21T01:01:42;101886.59;;;15.05;79.15
17764;BME280;22245;52.832;13.816;2023-05-21T01:05:05;101891.94;;;15.05;79.36
17764;BME280;22245;52.832;13.816;2023-05-21T01:08:28;101887.56;;;15.04;80.02
17764;BME280;22245;52.832;13.816;2023-05-21T01:11:50;101877.00;;;15.02;80.19
17764;BME280;22245;52.832;13.816;2023-05-21T01:15:13;101884.16;;;15.02;79.69
17764;BME280;22245;52.832;13.816;2023-05-21T01:18:35;101884.31;;;15.00;79.95
17764;BME280;22245;52.832;13.816;2023-05-21T01:22:00;101882.63;;;14.99;80.76
17764;BME280;22245;52.832;13.816;2023-05-21T01:25:25;101876.38;;;14.99;80.49
17764;BME280;22245;52.832;13.816;2023-05-21T01:28:47;101877.38;;;14.98;80.61
17764;BME280;22245;52.832;13.816;2023-05-21T01:32:15;101882.75;;;14.98;80.53
17764;BME280;22245;52.832;13.816;2023-05-21T01:35:41;101876.66;;;14.96;80.38
17764;BME280;22245;52.832;13.816;2023-05-21T01:39:08;101875.06;;;14.93;80.18
17764;BME280;22245;52.832;13.816;2023-05-21T01:42:35;101872.81;;;14.88;80.29
17764;BME280;22245;52.832;13.816;2023-05-21T01:45:58;101873.06;;;14.85;80.23
17764;BME280;22245;52.832;13.816;2023-05-21T01:49:22;101869.94;;;14.80;80.85
17764;BME280;22245;52.832;13.816;2023-05-21T01:52:48;101876.53;;;14.76;80.83
17764;BME280;22245;52.832;13.816;2023-05-21T01:56:11;101867.03;;;14.72;81.35
17764;BME280;22245;52.832;13.816;2023-05-21T01:59:35;101864.72;;;14.67;81.29
17764;BME280;22245;52.832;13.816;2023-05-21T02:02:57;101864.13;;;14.64;81.14
17764;BME280;22245;52.832;13.816;2023-05-21T02:06:19;101871.72;;;14.58;81.75
17764;BME280;22245;52.832;13.816;2023-05-21T02:09:40;101864.06;;;14.54;81.37
17764;BME280;22245;52.832;13.816;2023-05-21T02:13:02;101859.09;;;14.49;81.31
17764;BME280;22245;52.832;13.816;2023-05-21T02:16:25;101864.00;;;14.44;81.23
17764;BME280;22245;52.832;13.816;2023-05-21T02:19:47;101856.47;;;14.38;81.88
17764;BME280;22245;52.832;13.816;2023-05-21T02:23:09;101857.84;;;14.32;81.46
17764;BME280;22245;52.832;13.816;2023-05-21T02:26:31;101861.88;;;14.26;81.83
17764;BME280;22245;52.832;13.816;2023-05-21T02:29:52;101858.72;;;14.21;81.75
17764;BME280;22245;52.832;13.816;2023-05-21T02:33:16;101867.28;;;14.15;82.25
17764;BME280;22245;52.832;13.816;2023-05-21T02:36:39;101855.22;;;14.09;82.66
17764;BME280;22245;52.832;13.816;2023-05-21T02:40:01;101850.13;;;14.06;82.91
17764;BME280;22245;52.832;13.816;2023-05-21T02:43:25;101853.06;;;14.03;82.45
17764;BME280;22245;52.832;13.816;2023-05-21T02:46:46;101852.44;;;13.99;83.38
17764;BME280;22245;52.832;13.816;2023-05-21T02:50:12;101852.72;;;13.96;83.12
17764;BME280;22245;52.832;13.816;2023-05-21T02:53:39;101861.88;;;13.94;83.37
17764;BME280;22245;52.832;13.816;2023-05-21T02:57:02;101854.19;;;13.89;83.75
17764;BME280;22245;52.832;13.816;2023-05-21T03:00:23;101858.09;;;13.85;83.85
17764;BME280;22245;52.832;13.816;2023-05-21T03:03:45;101844.09;;;13.81;84.17
17764;BME280;22245;52.832;13.816;2023-05-21T03:07:09;101854.09;;;13.79;83.79
17764;BME280;22245;52.832;13.816;2023-05-21T03:10:33;101854.34;;;13.76;83.76
17764;BME280;22245;52.832;13.816;2023-05-21T03:13:55;101846.56;;;13.73;83.68
17764;BME280;22245;52.832;13.816;2023-05-21T03:17:16;101853.03;;;13.70;83.87
17764;BME280;22245;52.832;13.816;2023-05-21T03:20:38;101845.97;;;13.69;83.79
17764;BME280;22245;52.832;13.816;2023-05-21T03:24:05;101849.63;;;13.68;83.84
17764;BME280;22245;52.832;13.816;2023-05-21T03:27:26;101841.59;;;13.68;84.09
17764;BME280;22245;52.832;13.816;2023-05-21T03:30:49;101849.75;;;13.67;83.88
17764;BME280;22245;52.832;13.816;2023-05-21T03:34:37;101847.06;;;13.67;84.44
17764;BME280;22245;52.832;13.816;2023-05-21T03:37:59;101846.22;;;13.66;84.52
17764;BME280;22245;52.832;13.816;2023-05-21T03:41:22;101840.88;;;13.66;84.48
17764;BME280;22245;52.832;13.816;2023-05-21T03:44:49;101850.72;;;13.66;85.07
17764;BME280;22245;52.832;13.816;2023-05-21T03:48:33;101852.41;;;13.67;84.78
17764;BME280;22245;52.832;13.816;2023-05-21T03:52:01;101855.97;;;13.67;85.32
17764;BME280;22245;52.832;13.816;2023-05-21T03:55:23;101848.66;;;13.69;85.66
17764;BME280;22245;52.832;13.816;2023-05-21T03:58:46;101846.69;;;13.71;85.77
17764;BME280;22245;52.832;13.816;2023-05-21T04:02:09;101851.81;;;13.74;85.81
17764;BME280;22245;52.832;13.816;2023-05-21T04:05:31;101853.38;;;13.77;85.31
17764;BME280;22245;52.832;13.816;2023-05-21T04:08:53;101857.50;;;13.81;85.90
17764;BME280;22245;52.832;13.816;2023-05-21T04:12:14;101850.22;;;13.83;85.58
17764;BME280;22245;52.832;13.816;2023-05-21T04:15:38;101856.16;;;13.87;85.40
17764;BME280;22245;52.832;13.816;2023-05-21T04:19:00;101855.78;;;13.92;85.75
17764;BME280;22245;52.832;13.816;2023-05-21T04:22:22;101855.53;;;13.95;85.71
17764;BME280;22245;52.832;13.816;2023-05-21T04:25:45;101855.38;;;13.96;86.31
17764;BME280;22245;52.832;13.816;2023-05-21T04:29:10;101855.13;;;13.99;85.72
17764;BME280;22245;52.832;13.816;2023-05-21T04:32:34;101860.25;;;14.02;85.93
17764;BME280;22245;52.832;13.816;2023-05-21T04:35:55;101859.03;;;14.07;86.11
17764;BME280;22245;52.832;13.816;2023-05-21T04:39:17;101859.75;;;14.09;86.19
17764;BME280;22245;52.832;13.816;2023-05-21T04:42:39;101858.78;;;14.10;86.09
17764;BME280;22245;52.832;13.816;2023-05-21T04:46:02;101864.84;;;14.12;87.08
17764;BME280;22245;52.832;13.816;2023-05-21T04:49:27;101862.03;;;14.13;86.47
17764;BME280;22245;52.832;13.816;2023-05-21T04:52:49;101859.09;;;14.16;87.43
17764;BME280;22245;52.832;13.816;2023-05-21T04:56:10;101858.84;;;14.19;86.82
17764;BME280;22245;52.832;13.816;2023-05-21T04:59:32;101866.41;;;14.26;87.08
17764;BME280;22245;52.832;13.816;2023-05-21T05:02:53;101867.69;;;14.31;87.88
17764;BME280;22245;52.832;13.816;2023-05-21T05:06:16;101872.69;;;14.36;88.26
17764;BME280;22245;52.832;13.816;2023-05-21T05:09:38;101866.81;;;14.42;88.44
17764;BME280;22245;52.832;13.816;2023-05-21T05:13:00;101864.47;;;14.49;87.98
17764;BME280;22245;52.832;13.816;2023-05-21T05:16:22;101868.06;;;14.59;88.36
17764;BME280;22245;52.832;13.816;2023-05-21T05:19:48;101865.34;;;14.71;87.78
17764;BME280;22245;52.832;13.816;2023-05-21T05:23:11;101877.00;;;14.81;87.82
17764;BME280;22245;52.832;13.816;2023-05-21T05:26:33;101865.47;;;14.90;86.96
17764;BME280;22245;52.832;13.816;2023-05-21T05:29:54;101862.88;;;15.00;87.68
17764;BME280;22245;52.832;13.816;2023-05-21T05:33:16;101860.19;;;15.10;87.27
17764;BME280;22245;52.832;13.816;2023-05-21T05:36:39;101855.59;;;15.22;86.92
17764;BME280;22245;52.832;13.816;2023-05-21T05:40:02;101862.72;;;15.33;86.83
17764;BME280;22245;52.832;13.816;2023-05-21T05:43:25;101853.84;;;15.42;87.39
17764;BME280;22245;52.832;13.816;2023-05-21T05:46:47;101851.91;;;15.54;86.44
17764;BME280;22245;52.832;13.816;2023-05-21T05:50:10;101851.94;;;15.64;85.76
17764;BME280;22245;52.832;13.816;2023-05-21T05:53:32;101857.34;;;15.74;86.00
17764;BME280;22245;52.832;13.816;2023-05-21T05:56:55;101860.63;;;15.87;85.42
17764;BME280;22245;52.832;13.816;2023-05-21T06:00:17;101857.28;;;15.95;84.94
17764;BME280;22245;52.832;13.816;2023-05-21T06:03:41;101856.28;;;16.06;84.56
17764;BME280;22245;52.832;13.816;2023-05-21T06:07:06;101853.31;;;16.19;84.24
17764;BME280;22245;52.832;13.816;2023-05-21T06:10:28;101852.34;;;16.30;84.13
17764;BME280;22245;52.832;13.816;2023-05-21T06:13:52;101853.19;;;16.40;83.35
17764;BME280;22245;52.832;13.816;2023-05-21T06:17:14;101853.06;;;16.52;82.15
17764;BME280;22245;52.832;13.816;2023-05-21T06:20:36;101846.34;;;16.66;81.98
17764;BME280;22245;52.832;13.816;2023-05-21T06:23:58;101849.75;;;16.77;81.68
17764;BME280;22245;52.832;13.816;2023-05-21T06:27:21;101852.28;;;16.89;81.69
17764;BME280;22245;52.832;13.816;2023-05-21T06:30:44;101854.94;;;16.99;80.82
17764;BME280;22245;52.832;13.816;2023-05-21T06:34:06;101846.56;;;17.12;80.60
17764;BME280;22245;52.832;13.816;2023-05-21T06:37:28;101842.53;;;17.26;79.97
17764;BME280;22245;52.832;13.816;2023-05-21T06:40:50;101845.03;;;17.37;79.07
17764;BME280;22245;52.832;13.816;2023-05-21T06:44:27;101837.47;;;17.50;78.31
17764;BME280;22245;52.832;13.816;2023-05-21T06:48:26;101833.44;;;17.64;77.44
17764;BME280;22245;52.832;13.816;2023-05-21T06:51:48;101834.34;;;17.73;76.39
17764;BME280;22245;52.832;13.816;2023-05-21T06:55:10;101834.16;;;17.85;76.56
17764;BME280;22245;52.832;13.816;2023-05-21T06:58:52;101835.91;;;17.94;75.41
17764;BME280;22245;52.832;13.816;2023-05-21T07:02:14;101828.94;;;18.01;75.15
17764;BME280;22245;52.832;13.816;2023-05-21T07:05:37;101827.19;;;18.10;74.73
17764;BME280;22245;52.832;13.816;2023-05-21T07:08:59;101833.31;;;18.20;73.78
17764;BME280;22245;52.832;13.816;2023-05-21T07:12:22;101832.25;;;18.31;73.51
17764;BME280;22245;52.832;13.816;2023-05-21T07:15:44;101838.94;;;18.45;72.84
17764;BME280;22245;52.832;13.816;2023-05-21T07:19:06;101830.72;;;18.55;72.47
17764;BME280;22245;52.832;13.816;2023-05-21T07:22:29;101837.59;;;18.68;70.91
17764;BME280;22245;52.832;13.816;2023-05-21T07:25:51;101832.59;;;18.81;71.50
17764;BME280;22245;52.832;13.816;2023-05-21T07:29:14;101824.94;;;18.94;70.06
17764;BME280;22245;52.832;13.816;2023-05-21T07:32:35;101828.22;;;19.06;69.49
17764;BME280;22245;52.832;13.816;2023-05-21T07:35:57;101823.38;;;19.18;68.75
17764;BME280;22245;52.832;13.816;2023-05-21T07:39:20;101819.38;;;19.31;68.75
17764;BME280;22245;52.832;13.816;2023-05-21T07:42:42;101825.16;;;19.36;67.66
17764;BME280;22245;52.832;13.816;2023-05-21T07:46:05;101813.38;;;19.45;67.77
17764;BME280;22245;52.832;13.816;2023-05-21T07:49:27;101815.75;;;19.57;66.60
17764;BME280;22245;52.832;13.816;2023-05-21T07:52:49;101821.03;;;19.66;66.76
17764;BME280;22245;52.832;13.816;2023-05-21T07:56:13;101822.59;;;19.77;65.45
17764;BME280;22245;52.832;13.816;2023-05-21T07:59:35;101815.16;;;19.88;65.48
17764;BME280;22245;52.832;13.816;2023-05-21T08:02:58;101819.44;;;19.99;64.47
17764;BME280;22245;52.832;13.816;2023-05-21T08:06:20;101823.81;;;20.08;63.60
17764;BME280;22245;52.832;13.816;2023-05-21T08:09:43;101817.41;;;20.17;63.43
17764;BME280;22245;52.832;13.816;2023-05-21T08:13:06;101819.28;;;20.25;62.81
17764;BME280;22245;52.832;13.816;2023-05-21T08:16:28;101821.97;;;20.33;62.76
17764;BME280;22245;52.832;13.816;2023-05-21T08:19:50;101825.34;;;20.44;63.05
17764;BME280;22245;52.832;13.816;2023-05-21T08:23:12;101823.47;;;20.52;62.59
17764;BME280;22245;52.832;13.816;2023-05-21T08:26:40;101826.00;;;20.62;61.11
17764;BME280;22245;52.832;13.816;2023-05-21T08:30:07;101816.50;;;20.75;59.90
17764;BME280;22245;52.832;13.816;2023-05-21T08:33:30;101821.63;;;20.86;59.75
17764;BME280;22245;52.832;13.816;2023-05-21T08:36:52;101814.78;;;20.99;59.28
17764;BME280;22245;52.832;13.816;2023-05-21T08:40:44;101814.59;;;21.08;58.36
17764;BME280;22245;52.832;13.816;2023-05-21T08:44:10;101823.16;;;21.20;58.55
17764;BME280;22245;52.832;13.816;2023-05-21T08:47:34;101814.66;;;21.32;57.85
17764;BME280;22245;52.832;13.816;2023-05-21T08:50:58;101820.34;;;21.45;57.07
17764;BME280;22245;52.832;13.816;2023-05-21T08:54:25;101820.97;;;21.55;56.74
17764;BME280;22245;52.832;13.816;2023-05-21T08:57:48;101817.91;;;21.67;56.83
17764;BME280;22245;52.832;13.816;2023-05-21T09:01:11;101821.88;;;21.79;56.78
17764;BME280;22245;52.832;13.816;2023-05-21T09:04:38;101821.47;;;21.91;56.22
17764;BME280;22245;52.832;13.816;2023-05-21T09:08:04;101815.81;;;22.01;55.25
17764;BME280;22245;52.832;13.816;2023-05-21T09:12:00;101816.91;;;22.15;54.38
17764;BME280;22245;52.832;13.816;2023-05-21T09:15:22;101814.75;;;22.25;53.22
17764;BME280;22245;52.832;13.816;2023-05-21T09:18:44;101820.13;;;22.33;53.40
17764;BME280;22245;52.832;13.816;2023-05-21T09:22:12;101810.91;;;22.43;52.74
17764;BME280;22245;52.832;13.816;2023-05-21T09:25:36;101815.91;;;22.54;52.72
17764;BME280;22245;52.832;13.816;2023-05-21T09:29:03;101814.13;;;22.61;53.04
17764;BME280;22245;52.832;13.816;2023-05-21T09:32:24;101818.25;;;22.72;51.97
17764;BME280;22245;52.832;13.816;2023-05-21T09:35:46;101808.44;;;22.86;52.22
17764;BME280;22245;52.832;13.816;2023-05-21T09:39:10;101805.91;;;22.99;52.15
17764;BME280;22245;52.832;13.816;2023-05-21T09:42:37;101803.38;;;23.13;51.97
17764;BME280;22245;52.832;13.816;2023-05-21T09:45:59;101804.59;;;23.25;50.65
17764;BME280;22245;52.832;13.816;2023-05-21T09:49:25;101799.69;;;23.36;49.89
17764;BME280;22245;52.832;13.816;2023-05-21T09:52:49;101786.00;;;23.44;49.63
17764;BME280;22245;52.832;13.816;2023-05-21T09:56:13;101790.94;;;23.55;48.86
17764;BME280;22245;52.832;13.816;2023-05-21T09:59:35;101788.09;;;23.64;50.20
17764;BME280;22245;52.832;13.816;2023-05-21T10:03:00;101792.00;;;23.76;48.58
17764;BME280;22245;52.832;13.816;2023-05-21T10:06:28;101785.13;;;23.80;47.55
17764;BME280;22245;52.832;13.816;2023-05-21T10:09:52;101791.03;;;23.84;47.92
17764;BME280;22245;52.832;13.816;2023-05-21T10:13:17;101778.53;;;23.90;47.54
17764;BME280;22245;52.832;13.816;2023-05-21T10:16:41;101779.28;;;23.83;47.33
17764;BME280;22245;52.832;13.816;2023-05-21T10:20:05;101780.88;;;23.93;48.18
17764;BME280;22245;52.832;13.816;2023-05-21T10:23:28;101775.31;;;24.01;47.70
17764;BME280;22245;52.832;13.816;2023-05-21T10:26:50;101771.63;;;24.09;47.58
17764;BME280;22245;52.832;13.816;2023-05-21T10:30:14;101775.88;;;24.18;46.42
17764;BME280;22245;52.832;13.816;2023-05-21T10:33:37;101767.56;;;24.26;46.02
17764;BME280;22245;52.832;13.816;2023-05-21T10:37:00;101768.25;;;24.35;46.45
17764;BME280;22245;52.832;13.816;2023-05-21T10:40:22;101764.75;;;24.41;45.22
17764;BME280;22245;52.832;13.816;2023-05-21T10:43:52;101761.38;;;24.39;45.21
17764;BME280;22245;52.832;13.816;2023-05-21T10:47:52;101748.00;;;24.45;45.72
17764;BME280;22245;52.832;13.816;2023-05-21T10:51:17;101748.47;;;24.48;45.50
17764;BME280;22245;52.832;13.816;2023-05-21T10:55:10;101754.31;;;24.45;44.81
17764;BME280;22245;52.832;13.816;2023-05-21T10:58:46;101736.88;;;24.39;44.46
17764;BME280;22245;52.832;13.816;2023-05-21T11:02:12;101737.75;;;24.47;44.47
17764;BME280;22245;52.832;13.816;2023-05-21T11:05:39;101736.72;;;24.48;44.41
17764;BME280;22245;52.832;13.816;2023-05-21T11:09:28;101739.25;;;24.49;44.23
17764;BME280;22245;52.832;13.816;2023-05-21T11:13:11;101729.22;;;24.56;44.04
17764;BME280;22245;52.832;13.816;2023-05-21T11:16:34;101740.16;;;24.63;44.27
17764;BME280;22245;52.832;13.816;2023-05-21T11:20:03;101732.00;;;24.70;43.94
17764;BME280;22245;52.832;13.816;2023-05-21T11:23:47;101723.69;;;24.78;43.40
17764;BME280;22245;52.832;13.816;2023-05-21T11:27:09;101719.34;;;24.84;43.25
17764;BME280;22245;52.832;13.816;2023-05-21T11:30:31;101735.28;;;24.87;42.73
17764;BME280;22245;52.832;13.816;2023-05-21T11:34:07;101714.75;;;24.91;42.58
17764;BME280;22245;52.832;13.816;2023-05-21T11:37:30;101717.06;;;24.94;42.01
17764;BME280;22245;52.832;13.816;2023-05-21T11:41:00;101719.38;;;24.97;42.07
17764;BME280;22245;52.832;13.816;2023-05-21T11:44:39;101719.00;;;25.00;42.07
17764;BME280;22245;52.832;13.816;2023-05-21T11:48:02;101725.47;;;24.99;41.91
17764;BME280;22245;52.832;13.816;2023-05-21T11:51:25;101719.63;;;25.03;41.54
17764;BME280;22245;52.832;13.816;2023-05-21T11:54:47;101719.41;;;25.04;40.91
17764;BME280;22245;52.832;13.816;2023-05-21T11:58:12;101718.59;;;25.10;41.15
17764;BME280;22245;52.832;13.816;2023-05-21T12:01:36;101721.53;;;25.15;41.75
17764;BME280;22245;52.832;13.816;2023-05-21T12:04:58;101709.41;;;25.18;42.08
17764;BME280;22245;52.832;13.816;2023-05-21T12:08:23;101712.13;;;25.18;40.79
17764;BME280;22245;52.832;13.816;2023-05-21T12:11:45;101715.28;;;25.22;40.91
17764;BME280;22245;52.832;13.816;2023-05-21T12:15:09;101712.34;;;25.23;41.16
17764;BME280;22245;52.832;13.816;2023-05-21T12:18:32;101710.69;;;25.29;40.56
17764;BME280;22245;52.832;13.816;2023-05-21T12:21:53;101709.41;;;25.32;39.60
17764;BME280;22245;52.832;13.816;2023-05-21T12:25:16;101705.66;;;25.39;39.77
17764;BME280;22245;52.832;13.816;2023-05-21T12:28:40;101698.19;;;25.48;40.56
17764;BME280;22245;52.832;13.816;2023-05-21T12:32:03;101714.53;;;25.55;39.42
17764;BME280;22245;52.832;13.816;2023-05-21T12:35:29;101710.78;;;25.63;39.39
17764;BME280;22245;52.832;13.816;2023-05-21T12:38:52;101702.16;;;25.66;38.80
17764;BME280;22245;52.832;13.816;2023-05-21T12:42:14;101699.66;;;25.71;37.96
17764;BME280;22245;52.832;13.816;2023-05-21T12:45:36;101697.34;;;25.75;37.99
17764;BME280;22245;52.832;13.816;2023-05-21T12:49:01;101703.03;;;25.86;38.69
17764;BME280;22245;52.832;13.816;2023-05-21T12:52:23;101703.22;;;25.92;36.87
17764;BME280;22245;52.832;13.816;2023-05-21T12:55:46;101707.22;;;25.89;36.75
17764;BME280;22245;52.832;13.816;2023-05-21T12:59:11;101702.19;;;25.93;36.42
17764;BME280;22245;52.832;13.816;2023-05-21T13:02:34;101698.59;;;25.99;36.13
17764;BME280;22245;52.832;13.816;2023-05-21T13:06:01;101701.09;;;26.07;36.21
17764;BME280;22245;52.832;13.816;2023-05-21T13:09:23;101690.00;;;26.09;36.43
17764;BME280;22245;52.832;13.816;2023-05-21T13:12:45;101685.16;;;26.11;36.87
17764;BME280;22245;52.832;13.816;2023-05-21T13:16:07;101678.41;;;26.13;36.46
17764;BME280;22245;52.832;13.816;2023-05-21T13:19:29;101683.09;;;26.20;36.39
17764;BME280;22245;52.832;13.816;2023-05-21T13:22:52;101669.44;;;26.20;35.14
17764;BME280;22245;52.832;13.816;2023-05-21T13:26:14;101678.69;;;26.19;36.03
17764;BME280;22245;52.832;13.816;2023-05-21T13:29:36;101672.56;;;26.23;36.25
17764;BME280;22245;52.832;13.816;2023-05-21T13:32:58;101675.09;;;26.25;36.04
17764;BME280;22245;52.832;13.816;2023-05-21T13:36:20;101677.38;;;26.28;36.36
17764;BME280;22245;52.832;13.816;2023-05-21T13:39:44;101676.94;;;26.31;35.16
17764;BME280;22245;52.832;13.816;2023-05-21T13:43:05;101675.69;;;26.34;35.55
17764;BME280;22245;52.832;13.816;2023-05-21T13:46:27;101678.63;;;26.32;35.30
17764;BME280;22245;52.832;13.816;2023-05-21T13:49:49;101676.97;;;26.24;34.82
17764;BME280;22245;52.832;13.816;2023-05-21T13:53:11;101662.91;;;26.21;34.91
17764;BME280;22245;52.832;13.816;2023-05-21T13:56:34;101667.75;;;26.19;35.51
17764;BME280;22245;52.832;13.816;2023-05-21T13:59:56;101655.97;;;26.18;35.63
17764;BME280;22245;52.832;13.816;2023-05-21T14:03:18;101652.44;;;26.18;34.95
17764;BME280;22245;52.832;13.816;2023-05-21T14:06:40;101658.28;;;26.21;34.92
17764;BME280;22245;52.832;13.816;2023-05-21T14:10:01;101649.47;;;26.26;35.15
17764;BME280;22245;52.832;13.816;2023-05-21T14:13:24;101649.03;;;26.29;34.56
17764;BME280;22245;52.832;13.816;2023-05-21T14:16:46;101651.34;;;26.25;34.65
17764;BME280;22245;52.832;13.816;2023-05-21T14:20:09;101654.06;;;26.32;34.88
17764;BME280;22245;52.832;13.816;2023-05-21T14:23:31;101660.34;;;26.39;35.16
17764;BME280;22245;52.832;13.816;2023-05-21T14:26:53;101648.53;;;26.46;35.00
17764;BME280;22245;52.832;13.816;2023-05-21T14:30:16;101648.72;;;26.51;33.75
17764;BME280;22245;52.832;13.816;2023-05-21T14:33:37;101651.88;;;26.54;33.95
17764;BME280;22245;52.832;13.816;2023-05-21T14:36:59;101642.59;;;26.62;34.32
17764;BME280;22245;52.832;13.816;2023-05-21T14:40:21;101647.19;;;26.68;34.15
17764;BME280;22245;52.832;13.816;2023-05-21T14:43:42;101647.81;;;26.70;33.62
17764;BME280;22245;52.832;13.816;2023-05-21T14:47:05;101646.13;;;26.76;33.60
17764;BME280;22245;52.832;13.816;2023-05-21T14:50:27;101654.25;;;26.83;33.51
17764;BME280;22245;52.832;13.816;2023-05-21T14:53:49;101654.09;;;26.84;33.68
17764;BME280;22245;52.832;13.816;2023-05-21T14:57:11;101655.94;;;26.91;33.04
17764;BME280;22245;52.832;13.816;2023-05-21T15:00:33;101663.50;;;26.95;32.71
17764;BME280;22245;52.832;13.816;2023-05-21T15:03:57;101646.22;;;27.01;33.01
17764;BME280;22245;52.832;13.816;2023-05-21T15:07:19;101650.81;;;27.08;33.15
17764;BME280;22245;52.832;13.816;2023-05-21T15:10:41;101658.75;;;27.16;33.08
17764;BME280;22245;52.832;13.816;2023-05-21T15:14:02;101646.13;;;27.15;32.75
17764;BME280;22245;52.832;13.816;2023-05-21T15:17:24;101652.03;;;27.12;32.83
17764;BME280;22245;52.832;13.816;2023-05-21T15:20:47;101649.94;;;27.07;32.51
17764;BME280;22245;52.832;13.816;2023-05-21T15:24:08;101640.13;;;26.99;32.04
17764;BME280;22245;52.832;13.816;2023-05-21T15:27:30;101641.19;;;26.98;32.02
17764;BME280;22245;52.832;13.816;2023-05-21T15:30:52;101646.66;;;26.98;32.36
17764;BME280;22245;52.832;13.816;2023-05-21T15:34:14;101640.16;;;26.93;32.20
17764;BME280;22245;52.832;13.816;2023-05-21T15:37:38;101639.56;;;26.84;32.17
17764;BME280;22245;52.832;13.816;2023-05-21T15:41:00;101641.25;;;26.85;32.29
17764;BME280;22245;52.832;13.816;2023-05-21T15:44:23;101647.56;;;26.85;32.86
17764;BME280;22245;52.832;13.816;2023-05-21T15:47:45;101642.28;;;26.91;32.50
17764;BME280;22245;52.832;13.816;2023-05-21T15:51:07;101645.66;;;26.86;32.41
17764;BME280;22245;52.832;13.816;2023-05-21T15:54:30;101645.44;;;26.87;32.21
17764;BME280;22245;52.832;13.816;2023-05-21T15:57:52;101637.88;;;26.83;32.31
17764;BME280;22245;52.832;13.816;2023-05-21T16:01:14;101644.63;;;26.80;32.16
17764;BME280;22245;52.832;13.816;2023-05-21T16:04:36;101641.03;;;26.80;32.35
17764;BME280;22245;52.832;13.816;2023-05-21T16:07:58;101641.66;;;26.82;32.17
17764;BME280;22245;52.832;13.816;2023-05-21T16:11:21;101635.78;;;26.85;32.88
17764;BME280;22245;52.832;13.816;2023-05-21T16:14:43;101633.47;;;26.82;32.08
17764;BME280;22245;52.832;13.816;2023-05-21T16:18:05;101638.97;;;26.75;32.49
17764;BME280;22245;52.832;13.816;2023-05-21T16:21:27;101635.84;;;26.71;32.52
17764;BME280;22245;52.832;13.816;2023-05-21T16:24:49;101633.94;;;26.72;32.42
17764;BME280;22245;52.832;13.816;2023-05-21T16:28:12;101641.28;;;26.71;33.18
17764;BME280;22245;52.832;13.816;2023-05-21T16:31:34;101639.41;;;26.72;32.99
17764;BME280;22245;52.832;13.816;2023-05-21T16:34:57;101637.53;;;26.66;32.86
17764;BME280;22245;52.832;13.816;2023-05-21T16:38:19;101626.22;;;26.62;33.08
17764;BME280;22245;52.832;13.816;2023-05-21T16:41:42;101628.75;;;26.57;33.08
17764;BME280;22245;52.832;13.816;2023-05-21T16:45:06;101622.47;;;26.50;33.13
17764;BME280;22245;52.832;13.816;2023-05-21T16:48:28;101621.22;;;26.46;33.42
17764;BME280;22245;52.832;13.816;2023-05-21T16:51:50;101625.06;;;26.38;33.67
17764;BME280;22245;52.832;13.816;2023-05-21T16:55:11;101622.34;;;26.31;33.82
17764;BME280;22245;52.832;13.816;2023-05-21T16:58:34;101623.22;;;26.25;33.91
17764;BME280;22245;52.832;13.816;2023-05-21T17:01:57;101627.00;;;26.17;33.83
17764;BME280;22245;52.832;13.816;2023-05-21T17:05:19;101618.78;;;26.10;33.95
17764;BME280;22245;52.832;13.816;2023-05-21T17:08:41;101620.94;;;26.01;34.38
17764;BME280;22245;52.832;13.816;2023-05-21T17:12:04;101624.28;;;25.97;34.73
17764;BME280;22245;52.832;13.816;2023-05-21T17:15:26;101627.88;;;25.91;34.69
17764;BME280;22245;52.832;13.816;2023-05-21T17:18:49;101630.81;;;25.82;33.93
17764;BME280;22245;52.832;13.816;2023-05-21T17:22:12;101644.28;;;25.77;34.19
17764;BME280;22245;52.832;13.816;2023-05-21T17:25:34;101636.06;;;25.70;34.75
17764;BME280;22245;52.832;13.816;2023-05-21T17:28:56;101642.38;;;25.57;34.38
17764;BME280;22245;52.832;13.816;2023-05-21T17:32:17;101631.69;;;25.49;34.56